sensor_id;sensor_type;location;lat;lon;timestamp;temperature;humidity
59128;DHT22;44912;52.754;5.994;2022-07-09T00:00:28;15.50;99.90
59128;DHT22;44912;52.754;5.994;2022-07-09T00:02:53;15.50;99.90
59128;DHT22;44912;52.754;5.994;2022-07-09T00:05:19;15.50;99.90
59128;DHT22;44912;52.754;5.994;2022-07-09T00:07:44;15.40;99.90
59128;DHT22;44912;52.754;5.994;2022-07-09T00:10:10;15.40;99.90
59128;DHT22;44912;52.754;5.994;2022-07-09T00:12:37;15.40;99.90
59128;DHT22;44912;52.754;5.994;2022-07-09T00:15:02;15.40;99.90
59128;DHT22;44912;52.754;5.994;2022-07-09T00:17:28;15.30;99.90
59128;DHT22;44912;52.754;5.994;2022-07-09T00:19:56;15.30;99.90
59128;DHT22;44912;52.754;5.994;2022-07-09T00:22:21;15.30;99.90
59128;DHT22;44912;52.754;5.994;2022-07-09T00:24:47;15.20;99.90
59128;DHT22;44912;52.754;5.994;2022-07-09T00:27:12;15.20;99.90
59128;DHT22;44912;52.754;5.994;2022-07-09T00:29:38;15.10;99.90
59128;DHT22;44912;52.754;5.994;2022-07-09T00:32:04;15.00;99.90
59128;DHT22;44912;52.754;5.994;2022-07-09T00:34:30;14.90;99.90
59128;DHT22;44912;52.754;5.994;2022-07-09T00:36:55;14.90;99.90
59128;DHT22;44912;52.754;5.994;2022-07-09T00:39:21;14.80;99.90
59128;DHT22;44912;52.754;5.994;2022-07-09T00:41:46;14.90;99.90
59128;DHT22;44912;52.754;5.994;2022-07-09T00:44:12;15.00;99.90
59128;DHT22;44912;52.754;5.994;2022-07-09T00:46:37;15.10;99.90
59128;DHT22;44912;52.754;5.994;2022-07-09T00:49:03;15.10;99.90
59128;DHT22;44912;52.754;5.994;2022-07-09T00:51:32;15.10;99.90
59128;DHT22;44912;52.754;5.994;2022-07-09T00:53:59;15.10;99.90
59128;DHT22;44912;52.754;5.994;2022-07-09T00:56:26;15.20;99.90
59128;DHT22;44912;52.754;5.994;2022-07-09T00:58:53;15.10;99.90
59128;DHT22;44912;52.754;5.994;2022-07-09T01:01:19;15.10;99.90
59128;DHT22;44912;52.754;5.994;2022-07-09T01:03:44;15.00;99.90
59128;DHT22;44912;52.754;5.994;2022-07-09T01:06:10;15.00;99.90
59128;DHT22;44912;52.754;5.994;2022-07-09T01:08:36;14.90;99.90
59128;DHT22;44912;52.754;5.994;2022-07-09T01:11:01;14.80;99.90
59128;DHT22;44912;52.754;5.994;2022-07-09T01:13:27;14.70;99.90
59128;DHT22;44912;52.754;5.994;2022-07-09T01:15:53;14.60;99.90
59128;DHT22;44912;52.754;5.994;2022-07-09T01:18:18;14.60;99.90
59128;DHT22;44912;52.754;5.994;2022-07-09T01:20:44;14.60;99.90
59128;DHT22;44912;52.754;5.994;2022-07-09T01:23:10;14.60;99.90
59128;DHT22;44912;52.754;5.994;2022-07-09T01:25:43;14.60;99.90
59128;DHT22;44912;52.754;5.994;2022-07-09T01:28:12;14.80;99.90
59128;DHT22;44912;52.754;5.994;2022-07-09T01:30:40;14.80;99.90
59128;DHT22;44912;52.754;5.994;2022-07-09T01:33:06;15.00;99.90
59128;DHT22;44912;52.754;5.994;2022-07-09T01:35:32;15.00;99.90
59128;DHT22;44912;52.754;5.994;2022-07-09T01:37:58;15.10;99.90
59128;DHT22;44912;52.754;5.994;2022-07-09T01:40:24;15.10;99.90
59128;DHT22;44912;52.754;5.994;2022-07-09T01:42:50;15.00;99.90
59128;DHT22;44912;52.754;5.994;2022-07-09T01:45:16;15.00;99.90
59128;DHT22;44912;52.754;5.994;2022-07-09T01:47:42;15.10;99.90
59128;DHT22;44912;52.754;5.994;2022-07-09T01:50:08;15.20;99.90
59128;DHT22;44912;52.754;5.994;2022-07-09T01:52:34;15.20;99.90
59128;DHT22;44912;52.754;5.994;2022-07-09T01:54:59;15.30;99.90
59128;DHT22;44912;52.754;5.994;2022-07-09T01:57:25;15.40;99.90
59128;DHT22;44912;52.754;5.994;2022-07-09T01:59:51;15.40;99.90
59128;DHT22;44912;52.754;5.994;2022-07-09T02:02:17;15.50;99.90
59128;DHT22;44912;52.754;5.994;2022-07-09T02:04:42;15.60;99.90
59128;DHT22;44912;52.754;5.994;2022-07-09T02:07:08;15.70;99.90
59128;DHT22;44912;52.754;5.994;2022-07-09T02:09:33;15.80;99.90
59128;DHT22;44912;52.754;5.994;2022-07-09T02:11:59;15.90;99.90
59128;DHT22;44912;52.754;5.994;2022-07-09T02:14:24;16.00;99.90
59128;DHT22;44912;52.754;5.994;2022-07-09T02:16:50;16.00;99.90
59128;DHT22;44912;52.754;5.994;2022-07-09T02:19:16;16.10;99.90
59128;DHT22;44912;52.754;5.994;2022-07-09T02:21:41;16.00;99.90
59128;DHT22;44912;52.754;5.994;2022-07-09T02:24:07;16.00;99.90
59128;DHT22;44912;52.754;5.994;2022-07-09T02:26:33;16.00;99.90
59128;DHT22;44912;52.754;5.994;2022-07-09T02:28:59;16.00;99.90
59128;DHT22;44912;52.754;5.994;2022-07-09T02:31:25;16.00;99.90
59128;DHT22;44912;52.754;5.994;2022-07-09T02:33:51;16.00;99.90
59128;DHT22;44912;52.754;5.994;2022-07-09T02:36:17;16.00;99.90
59128;DHT22;44912;52.754;5.994;2022-07-09T02:38:43;16.00;99.90
59128;DHT22;44912;52.754;5.994;2022-07-09T02:41:08;16.00;99.90
59128;DHT22;44912;52.754;5.994;2022-07-09T02:43:34;16.00;99.90
59128;DHT22;44912;52.754;5.994;2022-07-09T02:45:59;16.00;99.90
59128;DHT22;44912;52.754;5.994;2022-07-09T02:48:25;16.00;99.90
59128;DHT22;44912;52.754;5.994;2022-07-09T02:50:51;16.00;99.90
59128;DHT22;44912;52.754;5.994;2022-07-09T02:53:17;16.00;99.90
59128;DHT22;44912;52.754;5.994;2022-07-09T02:55:43;16.00;99.90
59128;DHT22;44912;52.754;5.994;2022-07-09T02:58:09;16.00;99.90
59128;DHT22;44912;52.754;5.994;2022-07-09T03:00:36;16.00;99.90
59128;DHT22;44912;52.754;5.994;2022-07-09T03:03:02;16.00;99.90
59128;DHT22;44912;52.754;5.994;2022-07-09T03:05:28;16.00;99.90
59128;DHT22;44912;52.754;5.994;2022-07-09T03:07:53;16.00;99.90
59128;DHT22;44912;52.754;5.994;2022-07-09T03:10:19;16.00;99.90
59128;DHT22;44912;52.754;5.994;2022-07-09T03:12:44;16.00;99.90
59128;DHT22;44912;52.754;5.994;2022-07-09T03:15:10;16.00;99.90
59128;DHT22;44912;52.754;5.994;2022-07-09T03:17:38;16.00;99.90
59128;DHT22;44912;52.754;5.994;2022-07-09T03:20:04;15.90;99.90
59128;DHT22;44912;52.754;5.994;2022-07-09T03:22:30;15.90;99.90
59128;DHT22;44912;52.754;5.994;2022-07-09T03:24:55;15.90;99.90
59128;DHT22;44912;52.754;5.994;2022-07-09T03:27:21;15.90;99.90
59128;DHT22;44912;52.754;5.994;2022-07-09T03:29:46;15.80;99.90
59128;DHT22;44912;52.754;5.994;2022-07-09T03:32:12;15.80;99.90
59128;DHT22;44912;52.754;5.994;2022-07-09T03:34:37;15.80;99.90
59128;DHT22;44912;52.754;5.994;2022-07-09T03:37:03;15.90;99.90
59128;DHT22;44912;52.754;5.994;2022-07-09T03:39:29;15.90;99.90
59128;DHT22;44912;52.754;5.994;2022-07-09T03:41:55;15.80;99.90
59128;DHT22;44912;52.754;5.994;2022-07-09T03:44:20;15.90;99.90
59128;DHT22;44912;52.754;5.994;2022-07-09T03:46:46;15.90;99.90
59128;DHT22;44912;52.754;5.994;2022-07-09T03:49:11;15.90;99.90
59128;DHT22;44912;52.754;5.994;2022-07-09T03:51:38;15.80;99.90
59128;DHT22;44912;52.754;5.994;2022-07-09T03:54:03;15.80;99.90
59128;DHT22;44912;52.754;5.994;2022-07-09T03:56:29;15.80;99.90
59128;DHT22;44912;52.754;5.994;2022-07-09T03:58:55;15.80;99.90
59128;DHT22;44912;52.754;5.994;2022-07-09T04:01:20;15.90;99.90
59128;DHT22;44912;52.754;5.994;2022-07-09T04:03:46;15.80;99.90
59128;DHT22;44912;52.754;5.994;2022-07-09T04:06:11;15.80;99.90
59128;DHT22;44912;52.754;5.994;2022-07-09T04:08:37;15.80;99.90
59128;DHT22;44912;52.754;5.994;2022-07-09T04:11:03;15.80;99.90
59128;DHT22;44912;52.754;5.994;2022-07-09T04:13:29;15.80;99.90
59128;DHT22;44912;52.754;5.994;2022-07-09T04:15:54;15.70;99.90
59128;DHT22;44912;52.754;5.994;2022-07-09T04:18:20;15.80;99.90
59128;DHT22;44912;52.754;5.994;2022-07-09T04:20:45;15.70;99.90
59128;DHT22;44912;52.754;5.994;2022-07-09T04:23:11;15.70;99.90
59128;DHT22;44912;52.754;5.994;2022-07-09T04:25:37;15.70;99.90
59128;DHT22;44912;52.754;5.994;2022-07-09T04:28:03;15.70;99.90
59128;DHT22;44912;52.754;5.994;2022-07-09T04:30:30;15.70;99.90
59128;DHT22;44912;52.754;5.994;2022-07-09T04:32:56;15.80;99.90
59128;DHT22;44912;52.754;5.994;2022-07-09T04:35:22;15.80;99.90
59128;DHT22;44912;52.754;5.994;2022-07-09T04:37:47;15.90;99.90
59128;DHT22;44912;52.754;5.994;2022-07-09T04:40:13;15.90;99.90
59128;DHT22;44912;52.754;5.994;2022-07-09T04:42:38;15.90;99.90
59128;DHT22;44912;52.754;5.994;2022-07-09T04:45:04;16.00;99.90
59128;DHT22;44912;52.754;5.994;2022-07-09T04:47:30;16.00;99.90
59128;DHT22;44912;52.754;5.994;2022-07-09T04:49:55;16.00;99.90
59128;DHT22;44912;52.754;5.994;2022-07-09T04:52:21;16.00;99.90
59128;DHT22;44912;52.754;5.994;2022-07-09T04:54:51;16.00;99.90
59128;DHT22;44912;52.754;5.994;2022-07-09T04:57:17;16.10;99.90
59128;DHT22;44912;52.754;5.994;2022-07-09T04:59:43;16.10;99.90
59128;DHT22;44912;52.754;5.994;2022-07-09T05:02:08;16.20;99.90
59128;DHT22;44912;52.754;5.994;2022-07-09T05:04:34;16.20;99.90
59128;DHT22;44912;52.754;5.994;2022-07-09T05:06:59;16.20;99.90
59128;DHT22;44912;52.754;5.994;2022-07-09T05:09:25;16.30;99.90
59128;DHT22;44912;52.754;5.994;2022-07-09T05:11:50;16.30;99.90
59128;DHT22;44912;52.754;5.994;2022-07-09T05:14:16;16.30;99.90
59128;DHT22;44912;52.754;5.994;2022-07-09T05:16:42;16.40;99.90
59128;DHT22;44912;52.754;5.994;2022-07-09T05:19:11;16.50;99.90
59128;DHT22;44912;52.754;5.994;2022-07-09T05:21:41;16.50;99.90
59128;DHT22;44912;52.754;5.994;2022-07-09T05:24:07;16.60;99.90
59128;DHT22;44912;52.754;5.994;2022-07-09T05:26:33;16.60;99.90
59128;DHT22;44912;52.754;5.994;2022-07-09T05:28:59;16.60;99.90
59128;DHT22;44912;52.754;5.994;2022-07-09T05:31:25;16.70;99.90
59128;DHT22;44912;52.754;5.994;2022-07-09T05:33:51;16.70;99.90
59128;DHT22;44912;52.754;5.994;2022-07-09T05:36:17;16.80;99.90
59128;DHT22;44912;52.754;5.994;2022-07-09T05:38:44;16.90;99.90
59128;DHT22;44912;52.754;5.994;2022-07-09T05:41:10;17.00;99.90
59128;DHT22;44912;52.754;5.994;2022-07-09T05:43:36;17.10;99.90
59128;DHT22;44912;52.754;5.994;2022-07-09T05:46:02;17.10;99.90
59128;DHT22;44912;52.754;5.994;2022-07-09T05:48:27;17.10;99.90
59128;DHT22;44912;52.754;5.994;2022-07-09T05:50:53;17.10;99.90
59128;DHT22;44912;52.754;5.994;2022-07-09T05:53:20;17.20;99.90
59128;DHT22;44912;52.754;5.994;2022-07-09T05:55:45;17.20;99.90
59128;DHT22;44912;52.754;5.994;2022-07-09T05:58:12;17.20;99.90
59128;DHT22;44912;52.754;5.994;2022-07-09T06:00:37;17.30;99.90
59128;DHT22;44912;52.754;5.994;2022-07-09T06:03:03;17.30;99.90
59128;DHT22;44912;52.754;5.994;2022-07-09T06:05:28;17.40;99.90
59128;DHT22;44912;52.754;5.994;2022-07-09T06:07:54;17.40;99.90
59128;DHT22;44912;52.754;5.994;2022-07-09T06:10:20;17.40;99.90
59128;DHT22;44912;52.754;5.994;2022-07-09T06:12:45;17.40;99.90
59128;DHT22;44912;52.754;5.994;2022-07-09T06:15:11;17.40;99.90
59128;DHT22;44912;52.754;5.994;2022-07-09T06:17:37;17.40;99.90
59128;DHT22;44912;52.754;5.994;2022-07-09T06:20:04;17.50;99.90
59128;DHT22;44912;52.754;5.994;2022-07-09T06:22:30;17.50;99.90
59128;DHT22;44912;52.754;5.994;2022-07-09T06:24:56;17.50;99.90
59128;DHT22;44912;52.754;5.994;2022-07-09T06:27:21;17.50;99.90
59128;DHT22;44912;52.754;5.994;2022-07-09T06:29:47;17.50;99.90
59128;DHT22;44912;52.754;5.994;2022-07-09T06:32:12;17.60;99.90
59128;DHT22;44912;52.754;5.994;2022-07-09T06:34:38;17.70;99.90
59128;DHT22;44912;52.754;5.994;2022-07-09T06:37:03;17.70;99.90
59128;DHT22;44912;52.754;5.994;2022-07-09T06:39:29;17.70;99.90
59128;DHT22;44912;52.754;5.994;2022-07-09T06:42:09;17.80;99.90
59128;DHT22;44912;52.754;5.994;2022-07-09T06:44:35;17.80;99.90
59128;DHT22;44912;52.754;5.994;2022-07-09T06:47:01;17.90;99.90
59128;DHT22;44912;52.754;5.994;2022-07-09T06:49:27;17.90;99.90
59128;DHT22;44912;52.754;5.994;2022-07-09T06:51:53;18.00;99.90
59128;DHT22;44912;52.754;5.994;2022-07-09T06:54:18;18.00;99.90
59128;DHT22;44912;52.754;5.994;2022-07-09T06:56:44;18.10;99.90
59128;DHT22;44912;52.754;5.994;2022-07-09T06:59:09;18.10;99.90
59128;DHT22;44912;52.754;5.994;2022-07-09T07:01:35;18.10;99.90
59128;DHT22;44912;52.754;5.994;2022-07-09T07:04:00;18.20;99.90
59128;DHT22;44912;52.754;5.994;2022-07-09T07:06:26;18.30;99.90
59128;DHT22;44912;52.754;5.994;2022-07-09T07:08:51;18.30;99.90
59128;DHT22;44912;52.754;5.994;2022-07-09T07:11:17;18.40;99.90
59128;DHT22;44912;52.754;5.994;2022-07-09T07:13:42;18.40;99.90
59128;DHT22;44912;52.754;5.994;2022-07-09T07:16:08;18.40;99.90
59128;DHT22;44912;52.754;5.994;2022-07-09T07:18:34;18.50;99.90
59128;DHT22;44912;52.754;5.994;2022-07-09T07:20:59;18.50;99.90
59128;DHT22;44912;52.754;5.994;2022-07-09T07:23:25;18.50;99.90
59128;DHT22;44912;52.754;5.994;2022-07-09T07:25:51;18.50;99.90
59128;DHT22;44912;52.754;5.994;2022-07-09T07:28:16;18.50;99.90
59128;DHT22;44912;52.754;5.994;2022-07-09T07:30:42;18.50;99.90
59128;DHT22;44912;52.754;5.994;2022-07-09T07:33:07;18.60;99.90
59128;DHT22;44912;52.754;5.994;2022-07-09T07:35:33;18.60;99.90
59128;DHT22;44912;52.754;5.994;2022-07-09T07:37:58;18.60;99.90
59128;DHT22;44912;52.754;5.994;2022-07-09T07:40:24;18.60;99.90
59128;DHT22;44912;52.754;5.994;2022-07-09T07:42:50;18.60;99.90
59128;DHT22;44912;52.754;5.994;2022-07-09T07:45:16;18.70;99.90
59128;DHT22;44912;52.754;5.994;2022-07-09T07:47:41;18.60;99.90
59128;DHT22;44912;52.754;5.994;2022-07-09T07:50:07;18.60;99.90
59128;DHT22;44912;52.754;5.994;2022-07-09T07:52:33;18.60;99.90
59128;DHT22;44912;52.754;5.994;2022-07-09T07:54:59;18.60;99.90
59128;DHT22;44912;52.754;5.994;2022-07-09T07:57:24;18.60;99.90
59128;DHT22;44912;52.754;5.994;2022-07-09T07:59:50;18.60;99.90
59128;DHT22;44912;52.754;5.994;2022-07-09T08:02:15;18.70;99.90
59128;DHT22;44912;52.754;5.994;2022-07-09T08:04:41;18.70;99.90
59128;DHT22;44912;52.754;5.994;2022-07-09T08:07:06;18.60;99.90
59128;DHT22;44912;52.754;5.994;2022-07-09T08:09:32;18.70;99.90
59128;DHT22;44912;52.754;5.994;2022-07-09T08:11:59;18.70;99.90
59128;DHT22;44912;52.754;5.994;2022-07-09T08:14:25;18.70;99.90
59128;DHT22;44912;52.754;5.994;2022-07-09T08:16:51;18.70;99.90
59128;DHT22;44912;52.754;5.994;2022-07-09T08:19:16;18.80;99.90
59128;DHT22;44912;52.754;5.994;2022-07-09T08:21:42;18.70;99.90
59128;DHT22;44912;52.754;5.994;2022-07-09T08:24:07;18.70;99.90
59128;DHT22;44912;52.754;5.994;2022-07-09T08:26:33;18.70;99.90
59128;DHT22;44912;52.754;5.994;2022-07-09T08:28:59;18.70;99.90
59128;DHT22;44912;52.754;5.994;2022-07-09T08:31:24;18.70;99.90
59128;DHT22;44912;52.754;5.994;2022-07-09T08:33:50;18.70;99.90
59128;DHT22;44912;52.754;5.994;2022-07-09T08:36:17;18.80;99.90
59128;DHT22;44912;52.754;5.994;2022-07-09T08:38:43;18.80;99.90
59128;DHT22;44912;52.754;5.994;2022-07-09T08:41:09;18.90;99.90
59128;DHT22;44912;52.754;5.994;2022-07-09T08:43:36;18.90;99.90
59128;DHT22;44912;52.754;5.994;2022-07-09T08:46:02;18.90;99.90
59128;DHT22;44912;52.754;5.994;2022-07-09T08:48:28;19.00;99.90
59128;DHT22;44912;52.754;5.994;2022-07-09T08:50:58;19.20;99.90
59128;DHT22;44912;52.754;5.994;2022-07-09T08:53:25;19.30;99.90
59128;DHT22;44912;52.754;5.994;2022-07-09T08:55:53;19.30;99.90
59128;DHT22;44912;52.754;5.994;2022-07-09T08:58:19;19.30;99.90
59128;DHT22;44912;52.754;5.994;2022-07-09T09:00:45;19.30;99.90
59128;DHT22;44912;52.754;5.994;2022-07-09T09:03:12;19.30;99.90
59128;DHT22;44912;52.754;5.994;2022-07-09T09:05:38;19.30;99.90
59128;DHT22;44912;52.754;5.994;2022-07-09T09:08:18;19.40;99.90
59128;DHT22;44912;52.754;5.994;2022-07-09T09:10:46;19.30;99.90
59128;DHT22;44912;52.754;5.994;2022-07-09T09:13:14;19.30;99.90
59128;DHT22;44912;52.754;5.994;2022-07-09T09:15:41;19.30;99.90
59128;DHT22;44912;52.754;5.994;2022-07-09T09:18:06;19.40;99.90
59128;DHT22;44912;52.754;5.994;2022-07-09T09:20:32;19.40;99.90
59128;DHT22;44912;52.754;5.994;2022-07-09T09:22:57;19.40;99.90
59128;DHT22;44912;52.754;5.994;2022-07-09T09:25:28;19.40;99.90
59128;DHT22;44912;52.754;5.994;2022-07-09T09:27:55;19.40;99.90
59128;DHT22;44912;52.754;5.994;2022-07-09T09:30:25;19.40;99.90
59128;DHT22;44912;52.754;5.994;2022-07-09T09:32:58;19.50;99.90
59128;DHT22;44912;52.754;5.994;2022-07-09T09:35:35;19.60;99.90
59128;DHT22;44912;52.754;5.994;2022-07-09T09:38:01;19.70;99.90
59128;DHT22;44912;52.754;5.994;2022-07-09T09:40:27;19.80;99.90
59128;DHT22;44912;52.754;5.994;2022-07-09T09:42:53;20.00;99.90
59128;DHT22;44912;52.754;5.994;2022-07-09T09:45:19;20.10;99.90
59128;DHT22;44912;52.754;5.994;2022-07-09T09:47:47;20.20;99.90
59128;DHT22;44912;52.754;5.994;2022-07-09T09:50:21;20.20;99.90
59128;DHT22;44912;52.754;5.994;2022-07-09T09:52:51;20.00;99.90
59128;DHT22;44912;52.754;5.994;2022-07-09T09:55:19;19.80;99.90
59128;DHT22;44912;52.754;5.994;2022-07-09T09:57:45;19.80;99.90
59128;DHT22;44912;52.754;5.994;2022-07-09T10:00:12;19.70;99.90
59128;DHT22;44912;52.754;5.994;2022-07-09T10:02:43;19.60;99.90
59128;DHT22;44912;52.754;5.994;2022-07-09T10:05:08;19.50;99.90
59128;DHT22;44912;52.754;5.994;2022-07-09T10:07:34;19.30;99.90
59128;DHT22;44912;52.754;5.994;2022-07-09T10:10:00;19.30;99.90
59128;DHT22;44912;52.754;5.994;2022-07-09T10:12:36;19.40;99.90
59128;DHT22;44912;52.754;5.994;2022-07-09T10:15:20;19.40;99.90
59128;DHT22;44912;52.754;5.994;2022-07-09T10:17:47;19.60;99.90
59128;DHT22;44912;52.754;5.994;2022-07-09T10:20:13;19.80;99.90
59128;DHT22;44912;52.754;5.994;2022-07-09T10:22:40;19.80;99.90
59128;DHT22;44912;52.754;5.994;2022-07-09T10:25:07;19.80;99.90
59128;DHT22;44912;52.754;5.994;2022-07-09T10:27:47;19.80;99.90
59128;DHT22;44912;52.754;5.994;2022-07-09T10:30:31;19.80;99.90
59128;DHT22;44912;52.754;5.994;2022-07-09T10:33:07;19.70;99.90
59128;DHT22;44912;52.754;5.994;2022-07-09T10:35:48;19.80;99.90
59128;DHT22;44912;52.754;5.994;2022-07-09T10:38:15;20.10;99.90
59128;DHT22;44912;52.754;5.994;2022-07-09T10:40:42;20.00;99.90
59128;DHT22;44912;52.754;5.994;2022-07-09T10:43:09;20.00;99.90
59128;DHT22;44912;52.754;5.994;2022-07-09T10:45:36;20.20;99.90
59128;DHT22;44912;52.754;5.994;2022-07-09T10:48:04;20.50;99.90
59128;DHT22;44912;52.754;5.994;2022-07-09T10:50:31;20.50;99.90
59128;DHT22;44912;52.754;5.994;2022-07-09T10:52:58;20.30;99.90
59128;DHT22;44912;52.754;5.994;2022-07-09T10:55:26;20.10;99.90
59128;DHT22;44912;52.754;5.994;2022-07-09T10:57:53;20.00;99.90
59128;DHT22;44912;52.754;5.994;2022-07-09T11:00:21;20.10;99.90
59128;DHT22;44912;52.754;5.994;2022-07-09T11:02:58;20.50;99.90
59128;DHT22;44912;52.754;5.994;2022-07-09T11:05:27;20.60;99.90
59128;DHT22;44912;52.754;5.994;2022-07-09T11:08:01;20.40;99.90
59128;DHT22;44912;52.754;5.994;2022-07-09T11:10:27;20.40;99.90
59128;DHT22;44912;52.754;5.994;2022-07-09T11:12:57;20.50;99.90
59128;DHT22;44912;52.754;5.994;2022-07-09T11:15:28;20.60;99.90
59128;DHT22;44912;52.754;5.994;2022-07-09T11:17:58;20.60;99.90
59128;DHT22;44912;52.754;5.994;2022-07-09T11:20:26;20.50;99.90
59128;DHT22;44912;52.754;5.994;2022-07-09T11:22:51;20.50;99.90
59128;DHT22;44912;52.754;5.994;2022-07-09T11:25:17;20.60;99.90
59128;DHT22;44912;52.754;5.994;2022-07-09T11:27:44;20.40;99.90
59128;DHT22;44912;52.754;5.994;2022-07-09T11:30:13;20.20;99.90
59128;DHT22;44912;52.754;5.994;2022-07-09T11:32:41;20.30;99.90
59128;DHT22;44912;52.754;5.994;2022-07-09T11:35:07;20.60;99.90
59128;DHT22;44912;52.754;5.994;2022-07-09T11:37:33;20.80;99.90
59128;DHT22;44912;52.754;5.994;2022-07-09T11:39:58;20.70;99.90
59128;DHT22;44912;52.754;5.994;2022-07-09T11:42:24;20.50;99.90
59128;DHT22;44912;52.754;5.994;2022-07-09T11:44:58;20.40;99.90
59128;DHT22;44912;52.754;5.994;2022-07-09T11:47:35;20.40;99.90
59128;DHT22;44912;52.754;5.994;2022-07-09T11:50:05;20.50;99.90
59128;DHT22;44912;52.754;5.994;2022-07-09T11:52:32;20.70;99.90
59128;DHT22;44912;52.754;5.994;2022-07-09T11:55:06;20.90;99.90
59128;DHT22;44912;52.754;5.994;2022-07-09T11:57:35;20.90;99.90
59128;DHT22;44912;52.754;5.994;2022-07-09T12:00:03;21.10;99.90
59128;DHT22;44912;52.754;5.994;2022-07-09T12:02:34;21.20;99.90
59128;DHT22;44912;52.754;5.994;2022-07-09T12:05:03;21.50;99.90
59128;DHT22;44912;52.754;5.994;2022-07-09T12:07:29;21.40;99.90
59128;DHT22;44912;52.754;5.994;2022-07-09T12:10:11;21.50;99.90
59128;DHT22;44912;52.754;5.994;2022-07-09T12:12:38;21.80;99.90
59128;DHT22;44912;52.754;5.994;2022-07-09T12:15:05;22.10;99.90
59128;DHT22;44912;52.754;5.994;2022-07-09T12:17:31;22.30;99.90
59128;DHT22;44912;52.754;5.994;2022-07-09T12:19:57;22.30;99.90
59128;DHT22;44912;52.754;5.994;2022-07-09T12:22:24;22.00;99.90
59128;DHT22;44912;52.754;5.994;2022-07-09T12:24:53;21.90;99.90
59128;DHT22;44912;52.754;5.994;2022-07-09T12:27:19;22.10;99.90
59128;DHT22;44912;52.754;5.994;2022-07-09T12:29:46;22.30;99.90
59128;DHT22;44912;52.754;5.994;2022-07-09T12:32:12;22.30;99.90
59128;DHT22;44912;52.754;5.994;2022-07-09T12:34:38;22.50;99.90
59128;DHT22;44912;52.754;5.994;2022-07-09T12:37:04;22.60;99.90
59128;DHT22;44912;52.754;5.994;2022-07-09T12:39:30;22.70;99.90
59128;DHT22;44912;52.754;5.994;2022-07-09T12:41:56;22.50;99.90
59128;DHT22;44912;52.754;5.994;2022-07-09T12:44:23;22.30;99.90
59128;DHT22;44912;52.754;5.994;2022-07-09T12:46:50;22.10;99.90
59128;DHT22;44912;52.754;5.994;2022-07-09T12:49:16;22.00;99.90
59128;DHT22;44912;52.754;5.994;2022-07-09T12:51:41;21.90;99.90
59128;DHT22;44912;52.754;5.994;2022-07-09T12:54:07;22.00;99.90
59128;DHT22;44912;52.754;5.994;2022-07-09T12:56:32;22.30;99.90
59128;DHT22;44912;52.754;5.994;2022-07-09T12:58:58;22.40;99.90
59128;DHT22;44912;52.754;5.994;2022-07-09T13:01:24;22.60;99.90
59128;DHT22;44912;52.754;5.994;2022-07-09T13:03:49;22.50;99.90
59128;DHT22;44912;52.754;5.994;2022-07-09T13:06:15;22.50;99.90
59128;DHT22;44912;52.754;5.994;2022-07-09T13:09:03;22.50;99.90
59128;DHT22;44912;52.754;5.994;2022-07-09T13:11:29;22.30;99.90
59128;DHT22;44912;52.754;5.994;2022-07-09T13:13:55;22.30;99.90
59128;DHT22;44912;52.754;5.994;2022-07-09T13:16:21;22.40;99.90
59128;DHT22;44912;52.754;5.994;2022-07-09T13:18:47;22.60;99.90
59128;DHT22;44912;52.754;5.994;2022-07-09T13:21:13;22.50;99.90
59128;DHT22;44912;52.754;5.994;2022-07-09T13:23:39;22.40;99.90
59128;DHT22;44912;52.754;5.994;2022-07-09T13:26:05;22.40;99.90
59128;DHT22;44912;52.754;5.994;2022-07-09T13:28:31;22.60;99.90
59128;DHT22;44912;52.754;5.994;2022-07-09T13:30:56;22.60;99.90
59128;DHT22;44912;52.754;5.994;2022-07-09T13:33:22;22.60;99.90
59128;DHT22;44912;52.754;5.994;2022-07-09T13:35:47;22.80;99.90
59128;DHT22;44912;52.754;5.994;2022-07-09T13:38:13;22.90;99.90
59128;DHT22;44912;52.754;5.994;2022-07-09T13:40:38;22.70;99.90
59128;DHT22;44912;52.754;5.994;2022-07-09T13:43:04;22.70;99.90
59128;DHT22;44912;52.754;5.994;2022-07-09T13:45:29;22.60;99.90
59128;DHT22;44912;52.754;5.994;2022-07-09T13:47:56;22.60;99.90
59128;DHT22;44912;52.754;5.994;2022-07-09T13:50:22;22.50;99.90
59128;DHT22;44912;52.754;5.994;2022-07-09T13:52:48;22.60;99.90
59128;DHT22;44912;52.754;5.994;2022-07-09T13:55:14;22.40;99.90
59128;DHT22;44912;52.754;5.994;2022-07-09T13:57:40;22.20;99.90
59128;DHT22;44912;52.754;5.994;2022-07-09T14:00:07;22.20;99.90
59128;DHT22;44912;52.754;5.994;2022-07-09T14:02:34;22.00;99.90
59128;DHT22;44912;52.754;5.994;2022-07-09T14:05:04;21.70;99.90
59128;DHT22;44912;52.754;5.994;2022-07-09T14:07:30;21.70;99.90
59128;DHT22;44912;52.754;5.994;2022-07-09T14:09:55;21.50;99.90
59128;DHT22;44912;52.754;5.994;2022-07-09T14:12:21;21.40;99.90
59128;DHT22;44912;52.754;5.994;2022-07-09T14:14:49;21.50;99.90
59128;DHT22;44912;52.754;5.994;2022-07-09T14:17:15;21.50;99.90
59128;DHT22;44912;52.754;5.994;2022-07-09T14:19:40;21.60;99.90
59128;DHT22;44912;52.754;5.994;2022-07-09T14:22:06;21.60;99.90
59128;DHT22;44912;52.754;5.994;2022-07-09T14:24:32;21.70;99.90
59128;DHT22;44912;52.754;5.994;2022-07-09T14:26:57;21.50;99.90
59128;DHT22;44912;52.754;5.994;2022-07-09T14:29:23;21.10;99.90
59128;DHT22;44912;52.754;5.994;2022-07-09T14:31:49;20.90;99.90
59128;DHT22;44912;52.754;5.994;2022-07-09T14:34:15;21.00;99.90
59128;DHT22;44912;52.754;5.994;2022-07-09T14:36:40;21.10;99.90
59128;DHT22;44912;52.754;5.994;2022-07-09T14:39:06;21.20;99.90
59128;DHT22;44912;52.754;5.994;2022-07-09T14:41:32;21.00;99.90
59128;DHT22;44912;52.754;5.994;2022-07-09T14:43:58;20.70;99.90
59128;DHT22;44912;52.754;5.994;2022-07-09T14:46:23;20.70;99.90
59128;DHT22;44912;52.754;5.994;2022-07-09T14:48:49;20.60;99.90
59128;DHT22;44912;52.754;5.994;2022-07-09T14:51:15;20.40;99.90
59128;DHT22;44912;52.754;5.994;2022-07-09T14:53:40;20.10;99.90
59128;DHT22;44912;52.754;5.994;2022-07-09T14:56:06;20.00;99.90
59128;DHT22;44912;52.754;5.994;2022-07-09T14:58:32;19.80;99.90
59128;DHT22;44912;52.754;5.994;2022-07-09T15:00:58;19.70;99.90
59128;DHT22;44912;52.754;5.994;2022-07-09T15:03:24;19.50;99.90
59128;DHT22;44912;52.754;5.994;2022-07-09T15:05:50;19.40;99.90
59128;DHT22;44912;52.754;5.994;2022-07-09T15:08:15;19.30;99.90
59128;DHT22;44912;52.754;5.994;2022-07-09T15:10:41;19.20;99.90
59128;DHT22;44912;52.754;5.994;2022-07-09T15:13:07;19.20;99.90
59128;DHT22;44912;52.754;5.994;2022-07-09T15:15:34;19.30;99.90
59128;DHT22;44912;52.754;5.994;2022-07-09T15:18:00;19.20;99.90
59128;DHT22;44912;52.754;5.994;2022-07-09T15:20:25;19.10;99.90
59128;DHT22;44912;52.754;5.994;2022-07-09T15:22:53;19.10;99.90
59128;DHT22;44912;52.754;5.994;2022-07-09T15:25:19;19.30;99.90